createdAt,value
2022-07-25T00:00:25.974Z,19.88
2022-07-25T00:02:52.739Z,19.85
2022-07-25T00:05:21.530Z,19.87
2022-07-25T00:07:49.286Z,19.91
2022-07-25T00:10:16.233Z,19.78
2022-07-25T00:12:43.539Z,19.82
2022-07-25T00:15:10.860Z,19.64
2022-07-25T00:17:39.224Z,19.67
2022-07-25T00:20:07.718Z,19.76
2022-07-25T00:22:34.667Z,19.73
2022-07-25T00:25:01.402Z,19.74
2022-07-25T00:27:28.085Z,19.67
2022-07-25T00:29:54.940Z,19.66
2022-07-25T00:32:21.784Z,19.61
2022-07-25T00:34:48.665Z,19.64
2022-07-25T00:37:15.279Z,19.63
2022-07-25T00:39:41.954Z,19.65
2022-07-25T00:42:08.660Z,19.59
2022-07-25T00:44:35.565Z,19.52
2022-07-25T00:47:02.646Z,19.42
2022-07-25T00:49:29.503Z,19.23
2022-07-25T00:51:56.169Z,19.21
2022-07-25T00:54:23.461Z,19.20
2022-07-25T00:56:50.291Z,19.16
2022-07-25T00:59:17.865Z,19.12
2022-07-25T01:01:45.797Z,19.07
2022-07-25T01:04:12.865Z,19.16
2022-07-25T01:06:39.982Z,19.17
2022-07-25T01:09:07.234Z,19.06
2022-07-25T01:11:34.067Z,18.89
2022-07-25T01:14:01.091Z,18.85
2022-07-25T01:16:28.161Z,18.68
2022-07-25T01:18:54.859Z,18.67
2022-07-25T01:21:23.721Z,18.72
2022-07-25T01:23:50.873Z,18.59
2022-07-25T01:26:17.628Z,18.66
2022-07-25T01:28:44.265Z,18.65
2022-07-25T01:31:11.266Z,18.66
2022-07-25T01:33:38.358Z,18.51
2022-07-25T01:36:06.145Z,18.54
2022-07-25T01:38:33.105Z,18.56
2022-07-25T01:40:59.794Z,18.50
2022-07-25T01:43:26.839Z,18.40
2022-07-25T01:45:53.564Z,18.42
2022-07-25T01:48:20.669Z,18.39
2022-07-25T01:50:47.605Z,18.39
2022-07-25T01:53:15.713Z,18.39
2022-07-25T01:55:42.339Z,18.33
2022-07-25T01:58:09.855Z,18.33
2022-07-25T02:00:37.314Z,18.31
2022-07-25T02:03:22.754Z,18.15
2022-07-25T02:05:49.320Z,18.22
2022-07-25T02:08:16.383Z,18.20
2022-07-25T02:10:43.748Z,18.16
2022-07-25T02:13:10.767Z,18.18
2022-07-25T02:15:37.814Z,18.18
2022-07-25T02:18:04.793Z,18.21
2022-07-25T02:20:31.634Z,18.19
2022-07-25T02:22:58.684Z,18.06
2022-07-25T02:25:25.817Z,18.04
2022-07-25T02:27:52.388Z,18.06
2022-07-25T02:30:19.011Z,17.93
2022-07-25T02:32:46.113Z,17.93
2022-07-25T02:35:13.381Z,17.83
2022-07-25T02:37:41.825Z,17.70
2022-07-25T02:40:09.782Z,17.74
2022-07-25T02:42:36.345Z,17.76
2022-07-25T02:45:03.604Z,17.82
2022-07-25T02:47:30.635Z,17.71
2022-07-25T02:49:57.361Z,17.68
2022-07-25T02:52:24.231Z,17.67
2022-07-25T02:54:51.808Z,17.65
2022-07-25T02:57:18.567Z,17.72
2022-07-25T02:59:45.305Z,17.63
2022-07-25T03:02:12.014Z,17.56
2022-07-25T03:04:39.184Z,17.60
2022-07-25T03:07:05.752Z,17.65
2022-07-25T03:09:32.430Z,17.53
2022-07-25T03:11:59.206Z,17.64
2022-07-25T03:14:26.511Z,17.68
2022-07-25T03:16:53.686Z,17.65
2022-07-25T03:19:20.846Z,17.59
2022-07-25T03:21:47.400Z,17.57
2022-07-25T03:24:15.131Z,17.55
2022-07-25T03:26:42.564Z,17.39
2022-07-25T03:29:09.678Z,17.38
2022-07-25T03:31:36.379Z,17.41
2022-07-25T03:34:03.125Z,17.47
2022-07-25T03:36:30.612Z,17.42
2022-07-25T03:38:57.910Z,17.36
2022-07-25T03:41:24.790Z,17.30
2022-07-25T03:43:54.986Z,17.17
2022-07-25T03:46:21.799Z,17.24
2022-07-25T03:48:48.880Z,17.18
2022-07-25T03:51:15.527Z,17.08
2022-07-25T03:54:01.586Z,17.01
2022-07-25T03:56:49.828Z,17.08
2022-07-25T03:59:20.027Z,17.16
2022-07-25T04:01:48.806Z,17.15
2022-07-25T04:04:16.230Z,17.15
2022-07-25T04:06:42.844Z,17.08
2022-07-25T04:09:11.090Z,17.17
2022-07-25T04:11:38.707Z,17.17
2022-07-25T04:14:06.139Z,17.33
2022-07-25T04:16:33.312Z,17.34
2022-07-25T04:19:01.156Z,17.39
2022-07-25T04:21:28.643Z,17.36
2022-07-25T04:23:55.435Z,17.27
2022-07-25T04:26:22.818Z,17.30
2022-07-25T04:28:49.802Z,17.31
2022-07-25T04:31:16.751Z,17.28
2022-07-25T04:33:44.154Z,17.20
2022-07-25T04:36:11.060Z,17.28
2022-07-25T04:38:37.986Z,17.19
2022-07-25T04:41:05.189Z,17.29
2022-07-25T04:43:31.989Z,17.39
2022-07-25T04:45:59.790Z,17.50
2022-07-25T04:48:26.833Z,17.56
2022-07-25T04:50:53.867Z,17.62
2022-07-25T04:53:20.412Z,17.66
2022-07-25T04:55:46.959Z,17.75
2022-07-25T04:58:13.641Z,17.70
2022-07-25T05:00:40.549Z,17.80
2022-07-25T05:03:07.474Z,17.80
2022-07-25T05:05:34.066Z,17.82
2022-07-25T05:08:01.304Z,17.94
2022-07-25T05:10:29.013Z,18.03
2022-07-25T05:12:56.487Z,18.12
2022-07-25T05:15:23.524Z,18.05
2022-07-25T05:17:50.181Z,18.16
2022-07-25T05:20:16.811Z,18.21
2022-07-25T05:22:43.448Z,18.36
2022-07-25T05:25:11.172Z,18.42
2022-07-25T05:27:38.402Z,18.57
2022-07-25T05:30:06.481Z,18.63
2022-07-25T05:32:33.617Z,18.65
2022-07-25T05:35:00.553Z,18.77
2022-07-25T05:37:27.493Z,18.71
2022-07-25T05:39:54.193Z,18.78
2022-07-25T05:42:20.832Z,18.87
2022-07-25T05:44:47.660Z,18.99
2022-07-25T05:47:14.278Z,19.17
2022-07-25T05:49:40.909Z,19.30
2022-07-25T05:52:12.489Z,19.44
2022-07-25T05:54:40.173Z,19.59
2022-07-25T05:57:06.796Z,19.68
2022-07-25T05:59:34.171Z,19.83
2022-07-25T06:02:02.785Z,19.98
2022-07-25T06:04:30.401Z,20.13
2022-07-25T06:06:57.129Z,20.23
2022-07-25T06:09:24.282Z,20.43
2022-07-25T06:12:00.131Z,20.43
2022-07-25T06:14:29.910Z,20.58
2022-07-25T06:16:58.427Z,20.72
2022-07-25T06:19:25.410Z,20.81
2022-07-25T06:21:52.850Z,20.92
2022-07-25T06:24:19.760Z,21.18
2022-07-25T06:26:48.477Z,21.36
2022-07-25T06:29:15.763Z,21.55
2022-07-25T06:31:48.506Z,21.65
2022-07-25T06:34:19.085Z,21.85
2022-07-25T06:36:47.948Z,21.96
2022-07-25T06:39:24.381Z,22.19
2022-07-25T06:41:57.269Z,22.33
2022-07-25T06:44:25.399Z,22.43
2022-07-25T06:47:03.773Z,22.57
2022-07-25T06:49:32.165Z,22.70
2022-07-25T06:52:18.768Z,22.83
2022-07-25T06:55:04.485Z,22.94
2022-07-25T06:57:37.041Z,23.17
2022-07-25T07:00:11.708Z,23.47
2022-07-25T07:02:58.715Z,23.64
2022-07-25T07:05:35.869Z,23.82
2022-07-25T07:08:08.162Z,23.96
2022-07-25T07:10:37.938Z,24.16
2022-07-25T07:13:10.610Z,24.23
2022-07-25T07:15:40.439Z,24.37
2022-07-25T07:18:10.273Z,24.34
2022-07-25T07:20:37.499Z,24.45
2022-07-25T07:23:04.141Z,24.62
2022-07-25T07:25:41.416Z,24.79
2022-07-25T07:28:10.223Z,24.94
2022-07-25T07:31:05.726Z,25.03
2022-07-25T07:33:23.749Z,25.14
2022-07-25T07:35:50.406Z,25.30
2022-07-25T07:38:18.240Z,25.47
2022-07-25T07:40:45.178Z,25.59
2022-07-25T07:43:12.243Z,25.74
2022-07-25T07:45:39.235Z,25.81
2022-07-25T07:48:06.950Z,25.97
2022-07-25T07:50:35.069Z,26.05
2022-07-25T07:53:01.673Z,26.24
2022-07-25T07:55:44.729Z,26.25
2022-07-25T07:58:15.989Z,26.40
2022-07-25T08:00:44.338Z,26.55
2022-07-25T08:03:11.116Z,26.72
2022-07-25T08:05:43.848Z,26.91
2022-07-25T08:08:13.778Z,27.04
2022-07-25T08:10:46.397Z,27.20
2022-07-25T08:13:19.049Z,27.47
2022-07-25T08:15:49.373Z,27.63
2022-07-25T08:18:17.661Z,27.84
2022-07-25T08:20:47.890Z,27.94
2022-07-25T08:23:15.090Z,28.03
2022-07-25T08:25:42.540Z,28.11
2022-07-25T08:28:09.977Z,28.40
2022-07-25T08:30:37.737Z,28.56
2022-07-25T08:33:08.127Z,28.77
2022-07-25T08:35:34.900Z,28.93
2022-07-25T08:38:02.645Z,29.03
2022-07-25T08:40:31.318Z,29.14
2022-07-25T08:42:59.434Z,29.33
2022-07-25T08:45:29.179Z,29.47
2022-07-25T08:47:56.578Z,29.49
2022-07-25T08:50:29.022Z,29.70
2022-07-25T08:53:16.266Z,29.88
2022-07-25T08:55:47.020Z,29.87
2022-07-25T08:58:17.531Z,29.86
2022-07-25T09:00:44.458Z,30.02
2022-07-25T09:03:11.396Z,29.99
2022-07-25T09:05:38.863Z,30.09
2022-07-25T09:08:11.576Z,30.17
2022-07-25T09:10:39.454Z,30.39
2022-07-25T09:13:14.355Z,30.40
2022-07-25T09:15:42.987Z,30.52
2022-07-25T09:18:16.896Z,30.68
2022-07-25T09:20:49.688Z,30.67
2022-07-25T09:23:29.925Z,30.80
2022-07-25T09:26:14.182Z,30.93
2022-07-25T09:28:45.816Z,31.28
2022-07-25T09:31:13.726Z,31.54
2022-07-25T09:33:52.372Z,31.65
2022-07-25T09:36:22.309Z,31.61
2022-07-25T09:38:57.225Z,31.59
2022-07-25T09:41:37.527Z,31.79
2022-07-25T09:44:15.448Z,31.90
2022-07-25T09:46:44.039Z,31.92
2022-07-25T09:49:14.791Z,31.98
2022-07-25T09:51:44.995Z,32.01
2022-07-25T09:54:11.862Z,32.07
2022-07-25T09:56:38.768Z,32.03
2022-07-25T09:59:06.405Z,32.08
2022-07-25T10:01:38.639Z,32.06
2022-07-25T10:04:25.671Z,32.37
2022-07-25T10:07:10.354Z,32.32
2022-07-25T10:09:49.808Z,32.31
2022-07-25T10:12:23.742Z,32.32
2022-07-25T10:15:06.898Z,32.42
2022-07-25T10:17:35.386Z,32.40
2022-07-25T10:20:02.098Z,32.53
2022-07-25T10:22:56.597Z,32.50
2022-07-25T10:25:23.958Z,32.67
2022-07-25T10:28:00.196Z,32.71
2022-07-25T10:30:39.965Z,32.63
2022-07-25T10:33:40.956Z,32.80
2022-07-25T10:36:10.090Z,32.90
2022-07-25T10:38:42.716Z,32.85
2022-07-25T10:41:13.073Z,32.77
2022-07-25T10:43:44.624Z,32.77
2022-07-25T10:46:19.231Z,32.80
2022-07-25T10:48:57.725Z,32.75
2022-07-25T10:51:41.341Z,32.68
2022-07-25T10:54:16.344Z,32.52
2022-07-25T10:56:57.775Z,32.46
2022-07-25T10:59:36.467Z,32.43
2022-07-25T11:02:05.212Z,32.40
2022-07-25T11:04:32.688Z,32.21
2022-07-25T11:07:10.173Z,32.28
2022-07-25T11:09:37.146Z,32.51
2022-07-25T11:12:04.688Z,32.74
2022-07-25T11:14:40.746Z,32.91
2022-07-25T11:17:23.120Z,33.08
2022-07-25T11:20:01.750Z,33.36
2022-07-25T11:22:29.885Z,33.70
2022-07-25T11:24:57.987Z,33.48
2022-07-25T11:27:27.673Z,33.16
2022-07-25T11:30:08.640Z,32.92
2022-07-25T11:32:54.696Z,33.11
2022-07-25T11:35:30.669Z,33.20
2022-07-25T11:37:58.666Z,33.27
2022-07-25T11:43:11.719Z,33.08
2022-07-25T11:45:42.624Z,33.27
2022-07-25T11:48:21.065Z,33.26
2022-07-25T11:50:49.084Z,33.26
2022-07-25T11:53:24.837Z,33.46
2022-07-25T11:55:56.770Z,33.79
2022-07-25T11:58:39.201Z,33.71
2022-07-25T12:01:15.775Z,33.42
2022-07-25T12:03:48.243Z,33.68
2022-07-25T12:06:50.393Z,34.05
2022-07-25T12:09:23.809Z,34.07
2022-07-25T12:12:08.196Z,34.23
2022-07-25T12:14:48.527Z,34.27
2022-07-25T12:17:21.046Z,34.06
2022-07-25T12:19:51.731Z,34.19
2022-07-25T12:22:30.985Z,33.81
2022-07-25T12:25:16.443Z,33.94
2022-07-25T12:27:51.781Z,34.14
2022-07-25T12:30:21.927Z,33.92
2022-07-25T12:32:58.900Z,34.21
2022-07-25T12:35:31.985Z,34.06
2022-07-25T12:38:06.387Z,33.94
2022-07-25T12:43:37.592Z,33.68
2022-07-25T12:46:20.792Z,34.09
2022-07-25T12:48:58.423Z,34.08
2022-07-25T12:51:56.167Z,34.35
2022-07-25T12:54:37.374Z,34.33
2022-07-25T13:01:00.956Z,34.42
2022-07-25T13:03:54.252Z,34.64
2022-07-25T13:06:21.004Z,34.84
2022-07-25T13:08:47.665Z,34.91
2022-07-25T13:11:14.308Z,34.79
2022-07-25T13:13:40.940Z,34.70
2022-07-25T13:16:11.259Z,34.70
2022-07-25T13:18:37.895Z,34.57
2022-07-25T13:21:04.930Z,34.38
2022-07-25T13:23:31.569Z,34.23
2022-07-25T13:26:00.484Z,34.16
2022-07-25T13:28:27.261Z,34.25
2022-07-25T13:30:53.931Z,34.12
2022-07-25T13:33:21.019Z,34.18
2022-07-25T13:35:47.822Z,34.19
2022-07-25T13:38:14.494Z,34.17
2022-07-25T13:40:42.233Z,34.21
2022-07-25T13:43:09.930Z,34.27
2022-07-25T13:45:41.068Z,34.10
2022-07-25T13:50:58.856Z,33.88
2022-07-25T13:53:29.584Z,33.76
2022-07-25T13:55:59.406Z,33.64
2022-07-25T13:58:26.732Z,33.49
2022-07-25T14:00:53.566Z,33.33
2022-07-25T14:03:20.270Z,33.26
2022-07-25T14:05:47.341Z,33.22
2022-07-25T14:08:13.945Z,33.10
2022-07-25T14:10:40.562Z,32.99
2022-07-25T14:13:07.208Z,31.45
2022-07-25T14:15:33.808Z,28.98
2022-07-25T14:18:00.359Z,28.39
2022-07-25T14:20:27.331Z,28.12
2022-07-25T14:22:53.908Z,27.68
2022-07-25T14:25:20.501Z,27.67
2022-07-25T14:27:47.145Z,26.87
2022-07-25T14:30:14.016Z,26.66
2022-07-25T14:32:43.553Z,25.83
2022-07-25T14:35:11.646Z,25.22
2022-07-25T14:37:38.241Z,25.32
2022-07-25T14:40:05.926Z,25.15
2022-07-25T14:42:33.180Z,25.52
2022-07-25T14:45:00.245Z,25.92
2022-07-25T14:47:27.503Z,26.23
2022-07-25T14:49:54.336Z,26.20
2022-07-25T14:52:21.018Z,26.16
2022-07-25T14:54:47.576Z,25.97
2022-07-25T14:57:14.198Z,26.35
2022-07-25T14:59:40.810Z,26.31
2022-07-25T15:02:07.607Z,26.21
2022-07-25T15:04:34.256Z,26.43
2022-07-25T15:07:00.902Z,26.65
2022-07-25T15:09:28.383Z,26.84
2022-07-25T15:11:54.986Z,27.07
2022-07-25T15:14:21.686Z,27.27
2022-07-25T15:16:48.327Z,27.51
2022-07-25T15:19:16.943Z,27.56
2022-07-25T15:21:44.162Z,27.57
2022-07-25T15:24:10.780Z,27.90
2022-07-25T15:26:37.461Z,28.09
2022-07-25T15:29:07.755Z,28.39
2022-07-25T15:31:34.870Z,28.63
2022-07-25T15:34:01.562Z,28.72
2022-07-25T15:36:29.788Z,29.08
2022-07-25T15:38:56.623Z,29.21
2022-07-25T15:41:23.308Z,29.22
2022-07-25T15:43:50.021Z,29.04
2022-07-25T15:46:16.816Z,29.02
2022-07-25T15:48:44.014Z,29.15
2022-07-25T15:51:11.003Z,29.05
2022-07-25T15:53:37.610Z,29.03
2022-07-25T15:56:04.708Z,29.00
2022-07-25T15:58:31.710Z,29.10
2022-07-25T16:00:58.339Z,29.14
2022-07-25T16:03:25.476Z,29.14
2022-07-25T16:05:54.023Z,29.20
2022-07-25T16:08:20.727Z,29.61
2022-07-25T16:10:47.342Z,29.91
2022-07-25T16:13:14.086Z,30.09
2022-07-25T16:15:40.711Z,30.14
2022-07-25T16:18:07.446Z,30.21
2022-07-25T16:20:34.071Z,30.10
2022-07-25T16:23:01.733Z,30.31
2022-07-25T16:25:29.559Z,30.54
2022-07-25T16:27:56.838Z,30.75
2022-07-25T16:30:23.874Z,30.95
2022-07-25T16:32:50.534Z,30.80
2022-07-25T16:35:17.267Z,30.68
2022-07-25T16:37:44.080Z,30.52
2022-07-25T16:40:11.056Z,30.46
2022-07-25T16:42:37.899Z,30.52
2022-07-25T16:45:05.723Z,30.74
2022-07-25T16:47:32.343Z,30.99
2022-07-25T16:49:58.977Z,31.00
2022-07-25T16:52:25.624Z,30.95
2022-07-25T16:54:52.267Z,30.82
2022-07-25T16:57:18.919Z,30.87
2022-07-25T16:59:53.558Z,30.83
2022-07-25T17:02:24.819Z,30.80
2022-07-25T17:04:54.468Z,30.67
2022-07-25T17:07:21.101Z,30.18
2022-07-25T17:09:47.745Z,30.26
2022-07-25T17:12:14.507Z,30.19
2022-07-25T17:14:41.119Z,30.13
2022-07-25T17:17:07.926Z,29.92
2022-07-25T17:19:39.753Z,29.78
2022-07-25T17:22:07.157Z,29.72
2022-07-25T17:24:33.870Z,29.75
2022-07-25T17:27:01.378Z,29.70
2022-07-25T17:29:27.956Z,29.76
2022-07-25T17:31:54.598Z,29.58
2022-07-25T17:34:25.398Z,29.41
2022-07-25T17:36:51.955Z,29.25
2022-07-25T17:39:18.919Z,29.28
2022-07-25T17:41:45.569Z,29.23
2022-07-25T17:44:12.546Z,29.17
2022-07-25T17:46:39.399Z,29.36
2022-07-25T17:49:06.100Z,29.29
2022-07-25T17:51:32.809Z,28.98
2022-07-25T17:53:59.401Z,28.93
2022-07-25T17:56:26.155Z,28.87
2022-07-25T17:58:52.763Z,28.86
2022-07-25T18:01:19.503Z,28.61
2022-07-25T18:03:47.702Z,28.52
2022-07-25T18:06:14.760Z,28.20
2022-07-25T18:08:41.330Z,26.84
2022-07-25T18:11:07.950Z,25.58
2022-07-25T18:13:34.954Z,24.62
2022-07-25T18:16:01.755Z,24.37
2022-07-25T18:18:28.469Z,24.21
2022-07-25T18:20:55.142Z,24.34
2022-07-25T18:23:21.684Z,24.40
2022-07-25T18:25:48.287Z,23.88
2022-07-25T18:28:15.010Z,23.49
2022-07-25T18:30:41.753Z,23.23
2022-07-25T18:33:08.332Z,23.03
2022-07-25T18:35:34.984Z,22.99
2022-07-25T18:38:02.253Z,23.03
2022-07-25T18:40:28.967Z,23.16
2022-07-25T18:42:55.553Z,23.35
2022-07-25T18:45:23.462Z,23.27
2022-07-25T18:47:50.651Z,23.40
2022-07-25T18:50:19.968Z,23.26
2022-07-25T18:52:46.742Z,23.22
2022-07-25T18:55:13.327Z,23.38
2022-07-25T18:57:39.897Z,23.43
2022-07-25T19:00:09.531Z,23.57
2022-07-25T19:02:36.317Z,23.47
2022-07-25T19:05:03.010Z,23.57
2022-07-25T19:07:31.360Z,23.60
2022-07-25T19:09:58.090Z,23.56
2022-07-25T19:12:26.729Z,23.41
2022-07-25T19:14:54.392Z,23.03
2022-07-25T19:17:21.308Z,23.35
2022-07-25T19:19:48.047Z,23.38
2022-07-25T19:22:14.661Z,23.36
2022-07-25T19:24:41.255Z,23.44
2022-07-25T19:27:09.481Z,23.46
2022-07-25T19:29:37.337Z,23.56
2022-07-25T19:32:04.412Z,23.44
2022-07-25T19:34:30.976Z,23.54
2022-07-25T19:36:57.597Z,23.58
2022-07-25T19:39:24.922Z,23.43
2022-07-25T19:41:52.462Z,23.43
2022-07-25T19:44:19.563Z,23.33
2022-07-25T19:46:46.735Z,23.31
2022-07-25T19:49:13.515Z,23.41
2022-07-25T19:51:40.257Z,23.31
2022-07-25T19:54:09.127Z,23.31
2022-07-25T19:56:36.135Z,23.38
2022-07-25T19:59:02.986Z,23.49
2022-07-25T20:01:31.457Z,23.44
2022-07-25T20:03:58.215Z,23.33
2022-07-25T20:06:24.934Z,23.34
2022-07-25T20:08:51.621Z,23.30
2022-07-25T20:11:18.377Z,23.14
2022-07-25T20:13:45.053Z,23.10
2022-07-25T20:16:11.724Z,23.17
2022-07-25T20:18:38.488Z,23.18
2022-07-25T20:21:05.398Z,23.09
2022-07-25T20:23:32.181Z,23.00
2022-07-25T20:26:00.782Z,23.12
2022-07-25T20:28:27.396Z,23.26
2022-07-25T20:30:56.070Z,23.14
2022-07-25T20:33:27.097Z,23.25
2022-07-25T20:35:55.011Z,23.26
2022-07-25T20:38:28.404Z,23.25
2022-07-25T20:40:55.980Z,23.26
2022-07-25T20:43:22.661Z,23.13
2022-07-25T20:45:49.339Z,23.20
2022-07-25T20:48:16.168Z,23.18
2022-07-25T20:50:43.194Z,23.17
2022-07-25T20:53:09.940Z,23.06
2022-07-25T20:55:37.316Z,23.11
2022-07-25T20:58:04.769Z,23.07
2022-07-25T21:00:31.960Z,23.01
2022-07-25T21:02:58.986Z,22.96
2022-07-25T21:05:26.312Z,22.93
2022-07-25T21:07:54.121Z,23.03
2022-07-25T21:10:20.828Z,23.10
2022-07-25T21:12:47.672Z,23.12
2022-07-25T21:15:15.042Z,23.00
2022-07-25T21:17:41.926Z,23.11
2022-07-25T21:20:12.732Z,23.02
2022-07-25T21:22:39.655Z,23.05
2022-07-25T21:25:07.247Z,23.15
2022-07-25T21:27:34.160Z,23.05
2022-07-25T21:30:00.738Z,22.91
2022-07-25T21:32:27.451Z,22.87
2022-07-25T21:34:54.064Z,22.90
2022-07-25T21:37:20.751Z,22.94
2022-07-25T21:39:47.396Z,22.90
2022-07-25T21:42:14.492Z,22.91
2022-07-25T21:44:42.589Z,22.96
2022-07-25T21:47:10.324Z,22.96
2022-07-25T21:49:55.652Z,22.91
2022-07-25T21:52:30.249Z,22.89
2022-07-25T21:55:02.341Z,22.81
2022-07-25T21:57:29.107Z,22.76
2022-07-25T21:59:59.742Z,22.59
2022-07-25T22:02:26.661Z,22.61
2022-07-25T22:04:53.333Z,22.43
2022-07-25T22:07:20.036Z,22.54
2022-07-25T22:09:46.637Z,22.45
2022-07-25T22:12:14.808Z,22.40
2022-07-25T22:14:41.373Z,22.57
2022-07-25T22:17:12.687Z,22.49
2022-07-25T22:19:39.998Z,22.38
2022-07-25T22:22:07.207Z,22.59
2022-07-25T22:24:33.870Z,22.39
2022-07-25T22:27:00.485Z,22.39
2022-07-25T22:29:27.127Z,22.42
2022-07-25T22:31:53.822Z,22.33
2022-07-25T22:34:20.472Z,22.18
2022-07-25T22:36:47.172Z,22.16
2022-07-25T22:39:13.737Z,22.29
2022-07-25T22:41:40.290Z,22.15
2022-07-25T22:44:07.633Z,22.23
2022-07-25T22:46:34.774Z,22.14
2022-07-25T22:49:01.706Z,22.07
2022-07-25T22:51:29.206Z,21.98
2022-07-25T22:53:57.232Z,22.22
2022-07-25T22:56:24.293Z,22.16
2022-07-25T22:58:50.883Z,22.16
2022-07-25T23:01:18.364Z,22.10
2022-07-25T23:03:45.646Z,22.06
2022-07-25T23:06:12.615Z,21.94
2022-07-25T23:08:39.269Z,21.93
2022-07-25T23:11:06.355Z,21.89
2022-07-25T23:13:33.757Z,21.81
2022-07-25T23:16:00.668Z,21.72
2022-07-25T23:18:28.556Z,21.72
2022-07-25T23:20:55.179Z,21.72
2022-07-25T23:23:21.893Z,21.53
2022-07-25T23:25:48.635Z,21.37
2022-07-25T23:28:15.255Z,21.37
2022-07-25T23:30:42.043Z,21.22
2022-07-25T23:33:08.997Z,21.04
2022-07-25T23:35:35.742Z,21.03
2022-07-25T23:38:02.469Z,20.73
2022-07-25T23:40:29.521Z,20.75
2022-07-25T23:42:56.167Z,21.07
2022-07-25T23:45:24.268Z,20.92
2022-07-25T23:47:54.608Z,20.93
2022-07-25T23:50:22.156Z,20.78
2022-07-25T23:52:48.787Z,20.64
2022-07-25T23:55:15.345Z,20.59
2022-07-25T23:57:42.324Z,20.61
